createdAt,value
2023-05-03T00:01:31.816Z,102801.47
2023-05-03T00:04:00.968Z,102806.03
2023-05-03T00:06:31.588Z,102806.22
2023-05-03T00:08:59.318Z,102803.72
2023-05-03T00:11:27.158Z,102801.22
2023-05-03T00:13:54.856Z,102798.69
2023-05-03T00:16:22.564Z,102803.25
2023-05-03T00:18:50.409Z,102800.94
2023-05-03T00:21:19.528Z,102799.25
2023-05-03T00:23:47.260Z,102796.75
2023-05-03T00:26:14.984Z,102801.31
2023-05-03T00:28:42.712Z,102800.47
2023-05-03T00:31:11.796Z,102795.28
2023-05-03T00:33:40.768Z,102798.16
2023-05-03T00:36:10.029Z,102801.88
2023-05-03T00:38:39.550Z,102799.19
2023-05-03T00:41:07.823Z,102797.50
2023-05-03T00:43:37.697Z,102791.84
2023-05-03T00:46:16.874Z,102801.41
2023-05-03T00:48:45.902Z,102801.59
2023-05-03T00:51:15.478Z,102803.66
2023-05-03T00:53:44.827Z,102804.69
2023-05-03T00:56:12.931Z,102797.97
2023-05-03T00:58:40.930Z,102794.25
2023-05-03T01:01:09.060Z,102796.13
2023-05-03T01:03:41.497Z,102793.59
2023-05-03T01:06:14.814Z,102788.41
2023-05-03T01:08:54.939Z,102788.59
2023-05-03T01:11:28.367Z,102785.25
2023-05-03T01:13:58.351Z,102786.28
2023-05-03T01:16:35.195Z,102795.38
2023-05-03T01:19:05.620Z,102800.97
2023-05-03T01:21:35.565Z,102800.31
2023-05-03T01:24:12.743Z,102796.97
2023-05-03T01:26:41.822Z,102799.84
2023-05-03T01:29:09.664Z,102805.41
2023-05-03T01:31:45.269Z,102798.53
2023-05-03T01:34:23.062Z,102805.13
2023-05-03T01:36:51.818Z,102805.13
2023-05-03T01:39:22.212Z,102813.41
2023-05-03T01:41:52.429Z,102807.38
2023-05-03T01:44:21.141Z,102809.41
2023-05-03T01:46:49.740Z,102812.28
2023-05-03T01:49:17.550Z,102810.81
2023-05-03T01:51:45.263Z,102806.44
2023-05-03T01:54:13.068Z,102807.63
2023-05-03T01:56:41.163Z,102810.53
2023-05-03T01:59:10.813Z,102811.53
2023-05-03T02:01:38.598Z,102814.44
2023-05-03T02:04:06.469Z,102811.94
2023-05-03T02:06:34.239Z,102819.19
2023-05-03T02:09:02.030Z,102815.84
2023-05-03T02:11:29.743Z,102819.56
2023-05-03T02:13:57.517Z,102812.50
2023-05-03T02:16:27.682Z,102813.50
2023-05-03T02:18:59.285Z,102802.91
2023-05-03T02:21:27.121Z,102812.84
2023-05-03T02:23:54.927Z,102803.94
2023-05-03T02:26:22.633Z,102807.47
2023-05-03T02:28:50.395Z,102792.50
2023-05-03T02:31:18.170Z,102795.38
2023-05-03T02:33:47.258Z,102785.63
2023-05-03T02:36:14.956Z,102791.19
2023-05-03T02:38:42.701Z,102787.66
2023-05-03T02:41:10.403Z,102775.22
2023-05-03T02:43:38.256Z,102777.06
2023-05-03T02:46:06.055Z,102774.75
2023-05-03T02:48:33.851Z,102766.38
2023-05-03T02:51:03.340Z,102767.22
2023-05-03T02:53:31.071Z,102756.63
2023-05-03T02:55:58.763Z,102756.78
2023-05-03T02:58:26.848Z,102754.94
2023-05-03T03:00:54.549Z,102748.72
2023-05-03T03:03:22.314Z,102747.22
2023-05-03T03:05:50.105Z,102747.41
2023-05-03T03:08:19.488Z,102750.28
2023-05-03T03:10:47.295Z,102750.47
2023-05-03T03:13:15.286Z,102764.09
2023-05-03T03:15:43.008Z,102766.97
2023-05-03T03:18:10.831Z,102767.97
2023-05-03T03:20:38.559Z,102761.94
2023-05-03T03:23:06.249Z,102757.75
2023-05-03T03:25:35.329Z,102759.63
2023-05-03T03:28:03.089Z,102753.38
2023-05-03T03:30:31.409Z,102754.97
2023-05-03T03:32:59.090Z,102770.94
2023-05-03T03:35:27.135Z,102781.88
2023-05-03T03:37:54.848Z,102778.53
2023-05-03T03:40:22.577Z,102772.31
2023-05-03T03:42:51.644Z,102768.78
2023-05-03T03:45:19.564Z,102762.75
2023-05-03T03:47:47.295Z,102766.63
2023-05-03T03:50:15.121Z,102771.19
2023-05-03T03:52:42.973Z,102768.66
2023-05-03T03:55:11.919Z,102764.31
2023-05-03T03:57:39.724Z,102758.91
2023-05-03T04:00:11.697Z,102767.00
2023-05-03T04:02:39.510Z,102770.88
2023-05-03T04:05:08.079Z,102768.19
2023-05-03T04:07:36.087Z,102778.31
2023-05-03T04:10:04.054Z,102777.47
2023-05-03T04:12:31.922Z,102770.41
2023-05-03T04:14:59.621Z,102778.66
2023-05-03T04:17:29.209Z,102780.53
2023-05-03T04:19:57.100Z,102782.56
2023-05-03T04:22:24.888Z,102781.72
2023-05-03T04:24:54.720Z,102788.97
2023-05-03T04:27:22.422Z,102775.69
2023-05-03T04:29:50.795Z,102787.47
2023-05-03T04:32:23.415Z,102790.34
2023-05-03T04:34:54.321Z,102791.34
2023-05-03T04:37:23.437Z,102783.28
2023-05-03T04:39:51.164Z,102796.06
2023-05-03T04:42:18.973Z,102797.09
2023-05-03T04:44:46.922Z,102795.41
2023-05-03T04:47:14.627Z,102800.97
2023-05-03T04:49:42.305Z,102810.91
2023-05-03T04:52:11.401Z,102816.28
2023-05-03T04:54:39.291Z,102817.31
2023-05-03T04:57:07.183Z,102831.13
2023-05-03T04:59:34.858Z,102839.38
2023-05-03T05:02:02.635Z,102838.53
2023-05-03T05:04:30.452Z,102844.09
2023-05-03T05:06:59.350Z,102846.97
2023-05-03T05:09:31.217Z,102861.44
2023-05-03T05:11:59.280Z,102853.72
2023-05-03T05:14:28.265Z,102860.13
2023-05-03T05:16:56.060Z,102860.28
2023-05-03T05:19:23.952Z,102860.28
2023-05-03T05:21:52.429Z,102858.63
2023-05-03T05:24:20.105Z,102854.25
2023-05-03T05:26:49.828Z,102857.94
2023-05-03T05:29:17.515Z,102856.28
2023-05-03T05:31:45.372Z,102850.06
2023-05-03T05:34:13.120Z,102842.81
2023-05-03T05:36:41.004Z,102844.66
2023-05-03T05:39:09.183Z,102843.00
2023-05-03T05:41:37.091Z,102840.13
2023-05-03T05:44:07.200Z,102838.28
2023-05-03T05:46:34.907Z,102842.66
2023-05-03T05:49:02.628Z,102839.78
2023-05-03T05:51:30.688Z,102834.41
2023-05-03T05:53:58.489Z,102839.41
2023-05-03T05:56:26.506Z,102850.00
2023-05-03T05:58:54.216Z,102850.19
2023-05-03T06:01:23.288Z,102853.53
2023-05-03T06:03:50.942Z,102855.41
2023-05-03T06:06:18.742Z,102852.53
2023-05-03T06:08:49.753Z,102850.50
2023-05-03T06:11:18.188Z,102850.13
2023-05-03T06:13:45.898Z,102846.75
2023-05-03T06:16:13.564Z,102847.41
2023-05-03T06:18:42.725Z,102847.03
2023-05-03T06:21:11.436Z,102845.00
2023-05-03T06:23:39.989Z,102841.97
2023-05-03T06:26:09.872Z,102834.38
2023-05-03T06:28:37.580Z,102829.66
2023-05-03T06:31:05.344Z,102834.50
2023-05-03T06:33:33.030Z,102841.38
2023-05-03T06:36:02.124Z,102841.19
2023-05-03T06:38:29.948Z,102838.97
2023-05-03T06:40:57.653Z,102840.00
2023-05-03T06:43:25.333Z,102843.66
2023-05-03T06:45:53.710Z,102837.06
2023-05-03T06:48:21.736Z,102843.28
2023-05-03T06:50:49.613Z,102836.72
2023-05-03T06:53:18.718Z,102832.81
2023-05-03T06:55:46.668Z,102829.75
2023-05-03T06:58:14.487Z,102818.97
2023-05-03T07:00:42.446Z,102819.81
2023-05-03T07:03:10.414Z,102818.97
2023-05-03T07:05:38.236Z,102817.97
2023-05-03T07:08:06.307Z,102814.09
2023-05-03T07:10:36.470Z,102824.88
2023-05-03T07:13:04.213Z,102830.09
2023-05-03T07:15:32.497Z,102825.34
2023-05-03T07:18:01.175Z,102829.34
2023-05-03T07:20:29.325Z,102825.66
2023-05-03T07:22:57.513Z,102822.94
2023-05-03T07:25:25.406Z,102821.75
2023-05-03T07:27:54.534Z,102826.13
2023-05-03T07:30:22.753Z,102824.06
2023-05-03T07:32:50.817Z,102827.78
2023-05-03T07:35:19.393Z,102824.06
2023-05-03T07:37:47.091Z,102826.41
2023-05-03T07:40:14.766Z,102816.47
2023-05-03T07:42:42.502Z,102806.34
2023-05-03T07:45:12.184Z,102808.03
2023-05-03T07:47:43.304Z,102805.13
2023-05-03T07:50:11.391Z,102804.97
2023-05-03T07:52:40.198Z,102809.13
2023-05-03T07:55:09.048Z,102808.31
2023-05-03T07:57:36.877Z,102804.22
2023-05-03T08:00:06.280Z,102795.97
2023-05-03T08:02:35.567Z,102799.50
2023-05-03T08:05:05.361Z,102793.06
2023-05-03T08:07:33.409Z,102788.34
2023-05-03T08:10:02.729Z,102786.72
2023-05-03T08:12:30.710Z,102782.44
2023-05-03T08:14:58.379Z,102766.56
2023-05-03T08:17:26.417Z,102762.16
2023-05-03T08:19:57.619Z,102765.34
2023-05-03T08:22:27.051Z,102755.31
2023-05-03T08:24:56.531Z,102758.25
2023-05-03T08:27:25.657Z,102764.50
2023-05-03T08:29:53.388Z,102755.47
2023-05-03T08:32:22.706Z,102758.41
2023-05-03T08:34:50.697Z,102754.63
2023-05-03T08:37:20.018Z,102756.41
2023-05-03T08:39:48.389Z,102752.94
2023-05-03T08:42:16.555Z,102752.34
2023-05-03T08:44:47.966Z,102756.13
2023-05-03T08:47:16.336Z,102754.78
2023-05-03T08:49:44.938Z,102752.81
2023-05-03T08:52:15.903Z,102747.63
2023-05-03T08:54:46.616Z,102749.22
2023-05-03T08:57:16.043Z,102748.13
2023-05-03T08:59:50.103Z,102755.13
2023-05-03T09:02:18.916Z,102762.56
2023-05-03T09:04:46.992Z,102779.13
2023-05-03T09:07:15.874Z,102766.22
2023-05-03T09:09:47.153Z,102767.88
2023-05-03T09:12:35.069Z,102772.44
2023-05-03T09:15:04.352Z,102762.50
2023-05-03T09:17:32.110Z,102759.59
2023-05-03T09:20:00.911Z,102754.00
2023-05-03T09:22:33.413Z,102760.25
2023-05-03T09:25:04.165Z,102768.34
2023-05-03T09:27:31.945Z,102763.59
2023-05-03T09:30:19.264Z,102755.94
2023-05-03T09:32:50.371Z,102753.06
2023-05-03T09:35:18.170Z,102753.72
2023-05-03T09:37:46.100Z,102756.53
2023-05-03T09:40:18.345Z,102743.25
2023-05-03T09:43:07.973Z,102738.88
2023-05-03T09:45:36.306Z,102753.22
2023-05-03T09:48:05.508Z,102751.53
2023-05-03T09:50:34.077Z,102749.47
2023-05-03T09:53:06.176Z,102740.53
2023-05-03T09:55:36.372Z,102743.63
2023-05-03T09:58:07.625Z,102734.88
2023-05-03T10:00:38.334Z,102737.19
2023-05-03T10:03:10.389Z,102735.53
2023-05-03T10:05:43.948Z,102737.66
2023-05-03T10:08:17.308Z,102734.56
2023-05-03T10:10:51.867Z,102728.63
2023-05-03T10:13:21.984Z,102719.75
2023-05-03T10:15:53.425Z,102725.78
2023-05-03T10:18:22.315Z,102718.97
2023-05-03T10:20:57.490Z,102726.03
2023-05-03T10:23:26.163Z,102732.09
2023-05-03T10:26:17.370Z,102722.13
2023-05-03T10:28:45.847Z,102716.91
2023-05-03T10:31:45.558Z,102727.06
2023-05-03T10:34:32.321Z,102724.38
2023-05-03T10:37:03.518Z,102724.03
2023-05-03T10:39:32.003Z,102728.47
2023-05-03T10:42:04.453Z,102732.25
2023-05-03T10:44:39.287Z,102722.53
2023-05-03T10:47:14.751Z,102722.16
2023-05-03T10:49:42.923Z,102726.53
2023-05-03T10:52:49.237Z,102723.63
2023-05-03T10:55:20.747Z,102722.19
2023-05-03T10:57:51.149Z,102732.81
2023-05-03T11:00:24.341Z,102733.25
2023-05-03T11:03:10.896Z,102723.09
2023-05-03T11:05:40.345Z,102725.59
2023-05-03T11:08:13.533Z,102723.31
2023-05-03T11:10:41.821Z,102719.41
2023-05-03T11:13:11.096Z,102715.72
2023-05-03T11:15:39.157Z,102714.72
2023-05-03T11:18:08.606Z,102699.78
2023-05-03T11:20:36.985Z,102687.31
2023-05-03T11:23:05.482Z,102684.00
2023-05-03T11:25:33.951Z,102694.44
2023-05-03T11:28:02.596Z,102697.13
2023-05-03T11:30:35.083Z,102683.00
2023-05-03T11:33:03.558Z,102683.03
2023-05-03T11:35:31.994Z,102687.63
2023-05-03T11:37:59.777Z,102686.59
2023-05-03T11:40:27.832Z,102684.72
2023-05-03T11:42:57.925Z,102679.53
2023-05-03T11:45:27.655Z,102676.81
2023-05-03T11:47:57.719Z,102678.94
2023-05-03T11:50:44.369Z,102672.94
2023-05-03T11:53:12.967Z,102671.06
2023-05-03T11:55:43.323Z,102669.44
2023-05-03T11:58:14.666Z,102662.56
2023-05-03T12:00:45.127Z,102652.13
2023-05-03T12:03:18.468Z,102658.19
2023-05-03T12:05:48.361Z,102643.84
2023-05-03T12:08:20.635Z,102646.97
2023-05-03T12:10:51.299Z,102643.25
2023-05-03T12:13:29.986Z,102642.00
2023-05-03T12:18:50.201Z,102622.66
2023-05-03T12:23:51.641Z,102628.47
2023-05-03T12:26:21.567Z,102633.06
2023-05-03T12:28:50.246Z,102624.31
2023-05-03T12:31:18.640Z,102627.84
2023-05-03T12:34:07.438Z,102616.16
2023-05-03T12:36:37.557Z,102615.72
2023-05-03T12:39:09.385Z,102602.19
2023-05-03T12:44:10.616Z,102590.50
2023-05-03T12:46:39.234Z,102579.47
2023-05-03T12:49:09.304Z,102578.19
2023-05-03T12:51:42.026Z,102565.28
2023-05-03T12:54:11.695Z,102565.09
2023-05-03T12:56:41.176Z,102572.19
2023-05-03T13:06:44.865Z,102553.97
2023-05-03T13:09:19.822Z,102548.72
2023-05-03T13:11:49.833Z,102550.56
2023-05-03T13:14:17.806Z,102554.75
2023-05-03T13:16:46.465Z,102544.16
2023-05-03T13:19:16.104Z,102549.16
2023-05-03T13:21:43.794Z,102542.28
2023-05-03T13:24:11.529Z,102535.19
2023-05-03T13:26:39.205Z,102539.47
2023-05-03T13:29:07.633Z,102531.69
2023-05-03T13:31:35.438Z,102520.91
2023-05-03T13:34:03.181Z,102530.53
2023-05-03T13:36:33.440Z,102518.66
2023-05-03T13:39:01.947Z,102523.03
2023-05-03T13:41:29.678Z,102526.19
2023-05-03T13:43:57.452Z,102515.13
2023-05-03T13:46:25.441Z,102497.81
2023-05-03T13:48:56.050Z,102511.97
2023-05-03T13:51:25.090Z,102510.28
2023-05-03T13:53:54.892Z,102509.19
2023-05-03T13:56:22.632Z,102501.22
2023-05-03T13:58:50.418Z,102494.94
2023-05-03T14:01:18.571Z,102486.41
2023-05-03T14:03:46.450Z,102497.22
2023-05-03T14:06:14.404Z,102486.53
2023-05-03T14:08:42.180Z,102475.41
2023-05-03T14:11:15.130Z,102481.84
2023-05-03T14:13:55.635Z,102470.78
2023-05-03T14:18:56.975Z,102460.31
2023-05-03T14:21:24.934Z,102462.59
2023-05-03T14:23:54.192Z,102457.53
2023-05-03T14:26:24.332Z,102456.09
2023-05-03T14:28:52.074Z,102453.59
2023-05-03T14:31:19.978Z,102451.66
2023-05-03T14:33:47.937Z,102460.88
2023-05-03T14:36:15.808Z,102450.78
2023-05-03T14:38:43.643Z,102450.56
2023-05-03T14:41:11.326Z,102446.13
2023-05-03T14:43:40.407Z,102451.56
2023-05-03T14:46:08.697Z,102441.94
2023-05-03T14:48:38.162Z,102433.78
2023-05-03T14:51:06.537Z,102439.00
2023-05-03T14:53:35.655Z,102431.47
2023-05-03T14:56:03.399Z,102431.47
2023-05-03T14:58:34.249Z,102428.31
2023-05-03T15:01:03.503Z,102429.50
2023-05-03T15:03:31.474Z,102428.25
2023-05-03T15:06:00.264Z,102419.63
2023-05-03T15:08:28.798Z,102426.72
2023-05-03T15:10:56.507Z,102416.69
2023-05-03T15:13:24.559Z,102423.19
2023-05-03T15:15:52.401Z,102425.22
2023-05-03T15:18:22.099Z,102416.63
2023-05-03T15:20:49.853Z,102422.50
2023-05-03T15:23:17.587Z,102416.25
2023-05-03T15:25:45.318Z,102415.81
2023-05-03T15:28:13.047Z,102408.03
2023-05-03T15:30:40.763Z,102408.72
2023-05-03T15:35:41.363Z,102407.44
2023-05-03T15:38:09.704Z,102401.78
2023-05-03T15:40:37.802Z,102397.63
2023-05-03T15:43:05.590Z,102391.66
2023-05-03T15:45:33.396Z,102386.69
2023-05-03T15:48:01.943Z,102406.22
2023-05-03T15:50:30.804Z,102402.06
2023-05-03T15:53:00.159Z,102401.38
2023-05-03T15:55:27.890Z,102397.25
2023-05-03T15:57:57.002Z,102388.78
2023-05-03T16:00:25.869Z,102390.69
2023-05-03T16:02:53.645Z,102387.97
2023-05-03T16:05:21.491Z,102382.31
2023-05-03T16:07:49.485Z,102378.31
2023-05-03T16:10:18.601Z,102382.44
2023-05-03T16:12:46.328Z,102378.91
2023-05-03T16:15:14.062Z,102381.16
2023-05-03T16:17:41.829Z,102382.69
2023-05-03T16:20:11.602Z,102379.34
2023-05-03T16:22:39.606Z,102385.25
2023-05-03T16:25:10.500Z,102383.81
2023-05-03T16:27:40.382Z,102365.84
2023-05-03T16:30:09.868Z,102372.81
2023-05-03T16:32:38.205Z,102374.22
2023-05-03T16:35:06.415Z,102370.91
2023-05-03T16:37:37.423Z,102373.84
2023-05-03T16:40:10.189Z,102364.88
2023-05-03T16:42:40.056Z,102366.53
2023-05-03T16:45:10.695Z,102354.25
2023-05-03T16:47:39.015Z,102360.50
2023-05-03T16:50:08.456Z,102359.66
2023-05-03T16:52:39.741Z,102354.53
2023-05-03T16:55:09.066Z,102349.94
2023-05-03T16:57:37.193Z,102354.16
2023-05-03T17:00:09.290Z,102359.59
2023-05-03T17:02:38.071Z,102352.50
2023-05-03T17:05:07.851Z,102345.88
2023-05-03T17:07:36.720Z,102350.47
2023-05-03T17:10:06.455Z,102344.59
2023-05-03T17:12:34.663Z,102347.31
2023-05-03T17:15:02.397Z,102345.03
2023-05-03T17:17:32.720Z,102346.47
2023-05-03T17:20:00.561Z,102344.34
2023-05-03T17:22:28.450Z,102342.03
2023-05-03T17:24:58.362Z,102336.59
2023-05-03T17:27:26.259Z,102334.56
2023-05-03T17:29:56.887Z,102343.16
2023-05-03T17:32:24.721Z,102342.78
2023-05-03T17:34:53.809Z,102331.53
2023-05-03T17:37:23.231Z,102328.44
2023-05-03T17:39:51.042Z,102329.50
2023-05-03T17:42:18.747Z,102335.16
2023-05-03T17:44:46.665Z,102332.44
2023-05-03T17:47:15.251Z,102328.91
2023-05-03T17:49:42.941Z,102327.25
2023-05-03T17:52:12.073Z,102329.97
2023-05-03T17:54:40.679Z,102329.97
2023-05-03T17:57:08.615Z,102328.31
2023-05-03T17:59:36.550Z,102328.31
2023-05-03T18:02:04.409Z,102328.31
2023-05-03T18:04:32.420Z,102338.34
2023-05-03T18:07:00.199Z,102323.09
2023-05-03T18:09:30.745Z,102324.16
2023-05-03T18:11:59.907Z,102320.84
2023-05-03T18:14:27.663Z,102328.16
2023-05-03T18:16:56.121Z,102323.13
2023-05-03T18:19:23.937Z,102318.16
2023-05-03T18:21:51.676Z,102316.50
2023-05-03T18:24:19.375Z,102317.56
2023-05-03T18:26:48.442Z,102323.22
2023-05-03T18:29:16.257Z,102321.56
2023-05-03T18:31:44.056Z,102320.13
2023-05-03T18:34:12.070Z,102325.78
2023-05-03T18:36:40.028Z,102322.44
2023-05-03T18:39:08.788Z,102322.69
2023-05-03T18:41:37.292Z,102332.09
2023-05-03T18:44:08.232Z,102329.38
2023-05-03T18:46:37.245Z,102329.84
2023-05-03T18:49:05.671Z,102330.06
2023-05-03T18:51:33.427Z,102326.75
2023-05-03T18:54:01.406Z,102328.63
2023-05-03T18:56:30.880Z,102331.78
2023-05-03T18:58:58.854Z,102334.72
2023-05-03T19:01:28.079Z,102330.56
2023-05-03T19:03:56.262Z,102332.44
2023-05-03T19:06:24.313Z,102335.16
2023-05-03T19:08:53.655Z,102338.94
2023-05-03T19:11:21.415Z,102333.72
2023-05-03T19:13:49.135Z,102328.31
2023-05-03T19:16:17.001Z,102322.28
2023-05-03T19:18:46.138Z,102324.16
2023-05-03T19:21:17.084Z,102325.22
2023-05-03T19:23:44.925Z,102329.19
2023-05-03T19:26:12.814Z,102331.53
2023-05-03T19:28:41.117Z,102327.75
2023-05-03T19:31:08.851Z,102327.38
2023-05-03T19:33:37.242Z,102323.00
2023-05-03T19:36:07.252Z,102324.06
2023-05-03T19:38:36.263Z,102325.31
2023-05-03T19:41:07.796Z,102333.69
2023-05-03T19:43:35.582Z,102316.88
2023-05-03T19:46:03.871Z,102326.00
2023-05-03T19:48:32.085Z,102327.28
2023-05-03T19:51:00.018Z,102329.16
2023-05-03T19:53:29.386Z,102333.34
2023-05-03T19:55:58.612Z,102334.41
2023-05-03T19:58:27.296Z,102333.56
2023-05-03T20:00:55.592Z,102334.03
2023-05-03T20:03:24.024Z,102329.03
2023-05-03T20:05:52.016Z,102335.50
2023-05-03T20:08:19.909Z,102335.50
2023-05-03T20:10:49.793Z,102330.97
2023-05-03T20:13:17.627Z,102331.81
2023-05-03T20:15:45.453Z,102331.19
2023-05-03T20:18:13.192Z,102329.75
2023-05-03T20:20:40.925Z,102329.16
2023-05-03T20:23:08.612Z,102327.69
2023-05-03T20:25:36.326Z,102330.41
2023-05-03T20:28:05.955Z,102336.06
2023-05-03T20:30:34.756Z,102326.47
2023-05-03T20:33:02.691Z,102328.59
2023-05-03T20:35:30.430Z,102332.34
2023-05-03T20:37:58.215Z,102327.13
2023-05-03T20:40:26.135Z,102322.78
2023-05-03T20:42:53.873Z,102323.22
2023-05-03T20:45:23.068Z,102319.66
2023-05-03T20:47:50.860Z,102325.34
2023-05-03T20:50:18.780Z,102319.31
2023-05-03T20:52:46.804Z,102319.31
2023-05-03T20:55:14.582Z,102315.94
2023-05-03T20:57:42.834Z,102309.69
2023-05-03T21:00:12.522Z,102305.56
2023-05-03T21:02:41.641Z,102298.47
2023-05-03T21:05:10.511Z,102304.94
2023-05-03T21:07:38.398Z,102299.75
2023-05-03T21:10:07.326Z,102293.72
2023-05-03T21:12:35.576Z,102285.81
2023-05-03T21:15:03.416Z,102289.78
2023-05-03T21:17:31.174Z,102290.00
2023-05-03T21:20:00.265Z,102287.28
2023-05-03T21:22:27.975Z,102288.34
2023-05-03T21:24:55.690Z,102293.97
2023-05-03T21:27:23.418Z,102293.34
2023-05-03T21:29:51.250Z,102286.28
2023-05-03T21:32:18.941Z,102286.50
2023-05-03T21:34:46.759Z,102287.53
2023-05-03T21:37:15.836Z,102288.81
2023-05-03T21:39:54.216Z,102279.84
2023-05-03T21:42:28.963Z,102284.66
2023-05-03T21:44:56.782Z,102279.47
2023-05-03T21:47:24.506Z,102276.97
2023-05-03T21:49:52.418Z,102269.06
2023-05-03T21:52:21.547Z,102268.44
2023-05-03T21:54:49.253Z,102263.25
2023-05-03T21:57:18.843Z,102257.22
2023-05-03T21:59:47.402Z,102253.50
2023-05-03T22:02:15.097Z,102255.78
2023-05-03T22:04:43.463Z,102255.16
2023-05-03T22:07:11.242Z,102258.09
2023-05-03T22:09:40.304Z,102257.25
2023-05-03T22:12:22.424Z,102255.81
2023-05-03T22:14:51.524Z,102250.63
2023-05-03T22:17:19.808Z,102258.97
2023-05-03T22:19:47.525Z,102258.13
2023-05-03T22:22:15.296Z,102260.22
2023-05-03T22:24:44.500Z,102254.19
2023-05-03T22:27:12.210Z,102259.81
2023-05-03T22:29:39.980Z,102259.81
2023-05-03T22:32:07.833Z,102255.69
2023-05-03T22:34:35.663Z,102250.25
2023-05-03T22:37:03.374Z,102249.66
2023-05-03T22:39:31.081Z,102248.00
2023-05-03T22:42:00.213Z,102241.75
2023-05-03T22:44:27.947Z,102250.09
2023-05-03T22:46:55.844Z,102246.75
2023-05-03T22:49:23.579Z,102237.81
2023-05-03T22:51:51.557Z,102242.63
2023-05-03T22:54:19.311Z,102247.19
2023-05-03T22:56:47.076Z,102246.38
2023-05-03T22:59:16.282Z,102250.13
2023-05-03T23:01:46.132Z,102235.13
2023-05-03T23:04:14.103Z,102241.59
2023-05-03T23:06:41.809Z,102240.16
2023-05-03T23:09:10.391Z,102240.16
2023-05-03T23:11:38.373Z,102238.72
2023-05-03T23:14:06.987Z,102236.22
2023-05-03T23:16:36.118Z,102229.13
2023-05-03T23:19:04.134Z,102219.38
2023-05-03T23:21:32.412Z,102224.16
2023-05-03T23:24:00.221Z,102213.16
2023-05-03T23:26:29.084Z,102217.53
2023-05-03T23:28:57.145Z,102206.09
2023-05-03T23:31:25.304Z,102213.59
2023-05-03T23:33:54.867Z,102208.38
2023-05-03T23:36:22.588Z,102219.44
2023-05-03T23:38:51.067Z,102213.19
2023-05-03T23:41:18.937Z,102209.03
2023-05-03T23:43:46.979Z,102194.06
2023-05-03T23:46:14.779Z,102199.69
2023-05-03T23:48:42.536Z,102197.19
2023-05-03T23:51:11.616Z,102183.06
2023-05-03T23:53:39.345Z,102177.03
2023-05-03T23:56:08.233Z,102177.03
2023-05-03T23:58:36.268Z,102174.75
